Time;durP1;ratioP1;P1;durP2;ratioP2;P2;SDS_P1;SDS_P2;PMS_P1;PMS_P2;Temp;Humidity;BMP_temperature;BMP_pressure;BME280_temperature;BME280_humidity;BME280_pressure;Samples;Min_cycle;Max_cycle;Signal;HPM_P1;HPM_P2
2022/08/24 04:00:12;;;;;;;11.60;5.70;;;13.30;96.30;;;;;;6074579;23;21426;-76
2022/08/24 04:02:38;;;;;;;10.90;5.47;;;13.30;96.30;;;;;;4981375;28;20445;-75
2022/08/24 04:05:06;;;;;;;6.80;5.70;;;13.40;96.30;;;;;;4977437;28;20440;-75
2022/08/24 04:07:32;;;;;;;9.10;5.30;;;13.40;96.30;;;;;;4992435;28;20427;-75
2022/08/24 04:09:59;;;;;;;5.87;5.37;;;13.40;96.30;;;;;;4982248;28;20513;-75
2022/08/24 04:12:25;;;;;;;9.53;5.97;;;13.50;96.30;;;;;;4954420;28;20546;-75
2022/08/24 04:14:52;;;;;;;7.43;6.70;;;13.50;96.30;;;;;;4959134;29;20466;-75
2022/08/24 04:17:18;;;;;;;6.13;5.30;;;13.50;96.30;;;;;;4965996;29;20231;-75
2022/08/24 04:19:56;;;;;;;5.23;4.73;;;13.60;96.30;;;;;;4953178;29;20846;-75
2022/08/24 04:22:26;;;;;;;6.40;5.80;;;13.70;96.30;;;;;;4953813;28;20237;-75
2022/08/24 04:24:51;;;;;;;6.43;5.57;;;13.70;96.30;;;;;;4953524;29;20902;-75
2022/08/24 04:27:17;;;;;;;6.30;5.67;;;13.70;96.30;;;;;;4936132;29;20429;-76
2022/08/24 04:29:43;;;;;;;7.10;5.30;;;13.70;96.30;;;;;;4952882;29;20266;-76
2022/08/24 04:32:08;;;;;;;5.50;5.00;;;13.70;96.30;;;;;;4953246;29;21000;-75
2022/08/24 04:34:34;;;;;;;5.97;5.37;;;13.80;96.30;;;;;;4954989;28;20175;-75
2022/08/24 04:37:00;;;;;;;10.63;7.00;;;13.80;96.30;;;;;;4971762;28;20166;-74
2022/08/24 04:39:25;;;;;;;8.83;6.90;;;14.00;96.30;;;;;;4972895;28;20556;-74
2022/08/24 04:41:51;;;;;;;9.67;6.37;;;14.10;96.30;;;;;;4972819;28;20214;-74
2022/08/24 04:44:17;;;;;;;7.03;6.53;;;14.20;96.30;;;;;;4972970;28;20229;-74
2022/08/24 04:46:43;;;;;;;7.13;6.43;;;14.40;96.30;;;;;;4955634;28;20193;-74
2022/08/24 04:49:09;;;;;;;6.20;5.53;;;14.60;96.30;;;;;;4955535;28;20429;-74
2022/08/24 04:51:35;;;;;;;10.83;6.40;;;14.70;96.30;;;;;;4976385;28;20210;-75
2022/08/24 04:54:00;;;;;;;9.40;7.00;;;14.80;96.30;;;;;;4976484;28;20759;-75
2022/08/24 04:56:26;;;;;;;8.07;5.00;;;15.20;96.30;;;;;;4976481;28;20190;-75
2022/08/24 04:58:53;;;;;;;9.30;4.83;;;15.30;96.30;;;;;;4975814;28;20181;-75
2022/08/24 05:01:24;;;;;;;6.63;4.97;;;15.20;96.30;;;;;;4958780;28;20221;-75
2022/08/24 05:03:52;;;;;;;4.93;4.40;;;15.20;96.30;;;;;;4976335;28;20873;-74
2022/08/24 05:06:19;;;;;;;12.13;5.00;;;15.20;96.30;;;;;;4973152;28;20424;-74
2022/08/24 05:08:46;;;;;;;7.57;4.40;;;15.30;96.30;;;;;;4957886;28;20419;-75
2022/08/24 05:11:12;;;;;;;12.53;4.97;;;15.30;96.30;;;;;;4975762;28;20867;-74
2022/08/24 05:13:39;;;;;;;6.47;4.57;;;15.40;96.30;;;;;;4976050;28;20897;-75
2022/08/24 05:16:10;;;;;;;6.50;4.17;;;15.40;96.30;;;;;;4975999;28;20418;-75
2022/08/24 05:18:36;;;;;;;6.53;4.63;;;15.40;96.30;;;;;;4975374;28;20442;-75
2022/08/24 05:21:07;;;;;;;15.40;6.07;;;15.50;96.30;;;;;;4975689;28;20438;-75
2022/08/24 05:23:33;;;;;;;12.27;4.80;;;15.40;96.30;;;;;;4975919;28;20422;-75
2022/08/24 05:26:04;;;;;;;5.83;4.30;;;15.40;96.30;;;;;;4958349;28;20432;-76
2022/08/24 05:28:30;;;;;;;6.17;4.40;;;15.40;96.30;;;;;;4975210;28;20421;-75
2022/08/24 05:30:55;;;;;;;5.10;4.70;;;15.40;96.30;;;;;;4968634;28;20438;-76
2022/08/24 05:33:21;;;;;;;5.57;4.20;;;15.50;96.30;;;;;;4956465;29;20214;-76
2022/08/24 05:35:46;;;;;;;4.63;4.23;;;15.50;96.30;;;;;;4957252;29;20187;-76
2022/08/24 05:38:12;;;;;;;5.70;4.60;;;15.50;96.30;;;;;;4951372;28;20199;-77
2022/08/24 05:40:37;;;;;;;4.83;4.43;;;15.50;96.30;;;;;;4943179;28;20205;-75
2022/08/24 05:43:03;;;;;;;6.07;4.80;;;15.40;96.30;;;;;;4976784;28;20654;-75
2022/08/24 05:45:30;;;;;;;10.20;4.80;;;15.30;96.30;;;;;;4976832;28;20198;-75
2022/08/24 05:47:55;;;;;;;7.67;4.33;;;15.30;96.30;;;;;;4976220;28;20253;-75
2022/08/24 05:50:21;;;;;;;5.13;4.63;;;15.40;96.30;;;;;;4957721;28;20451;-75
2022/08/24 05:52:46;;;;;;;8.03;4.53;;;15.50;96.30;;;;;;4957399;29;20222;-76
2022/08/24 05:55:12;;;;;;;6.23;5.53;;;15.50;96.30;;;;;;4937347;29;20671;-75
2022/08/24 05:57:37;;;;;;;5.83;4.90;;;15.50;96.30;;;;;;4944544;29;20187;-75
2022/08/24 06:00:06;;;;;;;5.63;4.97;;;15.60;96.30;;;;;;4937785;29;20187;-75
2022/08/24 06:02:32;;;;;;;6.90;5.47;;;15.70;96.30;;;;;;4937266;29;20562;-76
2022/08/24 06:04:58;;;;;;;6.43;5.33;;;15.80;96.30;;;;;;4938493;29;20415;-77
2022/08/24 06:07:23;;;;;;;7.33;4.77;;;16.00;96.30;;;;;;4948769;28;20598;-76
2022/08/24 06:09:49;;;;;;;4.90;4.50;;;16.00;96.30;;;;;;4967039;28;20189;-76
2022/08/24 06:12:14;;;;;;;8.33;4.87;;;16.00;96.30;;;;;;4984425;28;20214;-75
2022/08/24 06:14:43;;;;;;;8.20;4.80;;;16.00;96.30;;;;;;4998199;28;20174;-75
2022/08/24 06:17:09;;;;;;;5.53;4.83;;;16.00;96.30;;;;;;5000117;28;20175;-75
2022/08/24 06:19:35;;;;;;;5.50;4.40;;;16.00;96.30;;;;;;4999711;28;20517;-72
2022/08/24 06:22:00;;;;;;;4.80;4.40;;;16.10;96.30;;;;;;5000147;28;20183;-74
2022/08/24 06:27:22;;;;;;;4.40;3.90;;;16.40;96.30;;;;;;4975115;28;20172;-76
2022/08/24 06:30:03;;;;;;;9.80;4.87;;;16.40;96.30;;;;;;4974215;28;20401;-76
2022/08/24 06:32:29;;;;;;;17.37;7.60;;;16.40;96.30;;;;;;4957305;28;20927;-77
2022/08/24 06:34:56;;;;;;;5.63;3.90;;;16.40;96.30;;;;;;4974608;28;20496;-74
2022/08/24 06:37:25;;;;;;;5.40;4.53;;;16.50;96.30;;;;;;4957027;28;20662;-75
2022/08/24 06:39:51;;;;;;;11.40;4.43;;;16.60;96.30;;;;;;4973649;28;20901;-75
2022/08/24 06:42:16;;;;;;;9.23;4.47;;;16.70;96.30;;;;;;4945453;29;20446;-75
2022/08/24 06:44:43;;;;;;;4.60;4.20;;;16.80;96.30;;;;;;4955039;29;20842;-75
2022/08/24 06:47:08;;;;;;;5.33;4.17;;;16.90;96.30;;;;;;4937661;29;20182;-75
2022/08/24 06:49:36;;;;;;;7.70;5.00;;;16.80;96.30;;;;;;4940634;29;20447;-75
2022/08/24 06:52:01;;;;;;;6.23;4.50;;;16.60;96.30;;;;;;4940913;29;20211;-76
2022/08/24 06:54:27;;;;;;;6.30;4.30;;;16.70;96.30;;;;;;4935616;29;20411;-75
2022/08/24 06:56:54;;;;;;;7.83;5.37;;;16.80;96.30;;;;;;4935516;29;20180;-75
2022/08/24 06:59:19;;;;;;;7.80;4.70;;;16.80;96.30;;;;;;4917946;29;20180;-75
2022/08/24 07:01:45;;;;;;;4.83;4.30;;;16.90;96.30;;;;;;4935446;29;20988;-75
2022/08/24 07:04:10;;;;;;;6.20;4.60;;;16.80;96.30;;;;;;4941993;28;20226;-75
2022/08/24 07:06:36;;;;;;;8.47;4.67;;;16.80;96.30;;;;;;4960704;28;20183;-75
2022/08/24 07:09:02;;;;;;;7.37;5.10;;;16.90;96.30;;;;;;4954517;28;20169;-75
2022/08/24 07:11:27;;;;;;;4.77;4.37;;;17.10;96.30;;;;;;4954247;29;20207;-75
2022/08/24 07:13:53;;;;;;;5.50;4.50;;;17.10;96.30;;;;;;4954518;28;20414;-77
2022/08/24 07:16:20;;;;;;;4.70;4.30;;;17.30;96.30;;;;;;4954500;29;20190;-74
2022/08/24 07:18:45;;;;;;;5.27;4.63;;;17.30;96.30;;;;;;4954251;29;20643;-75
2022/08/24 07:21:11;;;;;;;7.47;5.60;;;17.30;96.30;;;;;;4937392;29;20442;-74
2022/08/24 07:23:37;;;;;;;5.43;4.77;;;17.60;96.30;;;;;;4954473;29;20170;-74
2022/08/24 07:26:11;;;;;;;5.37;4.03;;;17.90;96.30;;;;;;4954275;29;20199;-74
2022/08/24 07:28:38;;;;;;;12.50;5.43;;;18.00;96.30;;;;;;4954089;29;20786;-74
2022/08/24 07:31:05;;;;;;;6.13;5.43;;;18.20;96.30;;;;;;4954206;29;20453;-75
2022/08/24 07:33:32;;;;;;;14.20;6.10;;;18.30;96.30;;;;;;4954253;29;20415;-74
2022/08/24 07:35:58;;;;;;;6.10;5.10;;;18.40;96.30;;;;;;4954204;29;20502;-75
2022/08/24 07:38:23;;;;;;;9.03;5.53;;;18.50;96.30;;;;;;4954008;29;20501;-74
2022/08/24 07:40:49;;;;;;;7.27;5.57;;;18.60;96.30;;;;;;4961614;28;20206;-74
2022/08/24 07:43:14;;;;;;;7.17;5.73;;;18.70;96.30;;;;;;4973471;28;20240;-75
2022/08/24 07:45:41;;;;;;;8.67;5.60;;;18.90;96.30;;;;;;4956125;28;20178;-74
2022/08/24 07:48:07;;;;;;;7.60;6.07;;;19.00;96.30;;;;;;4973091;28;20178;-74
2022/08/24 07:50:34;;;;;;;8.00;5.60;;;19.30;96.30;;;;;;4973406;28;20465;-74
2022/08/24 07:52:59;;;;;;;25.93;6.40;;;19.50;96.30;;;;;;4973210;28;20453;-75
2022/08/24 07:55:25;;;;;;;8.33;6.07;;;19.70;96.30;;;;;;4955895;28;20433;-75
2022/08/24 07:57:50;;;;;;;8.70;5.50;;;19.90;96.30;;;;;;4973145;28;20170;-75
2022/08/24 08:00:18;;;;;;;10.80;5.37;;;20.10;96.30;;;;;;4972966;28;20697;-75
2022/08/24 08:02:45;;;;;;;7.90;5.33;;;20.30;96.30;;;;;;4973181;28;20579;-75
2022/08/24 08:05:13;;;;;;;11.10;5.40;;;20.40;96.30;;;;;;4973108;28;20418;-75
2022/08/24 08:07:38;;;;;;;7.30;4.90;;;20.60;96.30;;;;;;4973043;28;21054;-75
2022/08/24 08:10:04;;;;;;;10.80;6.30;;;21.00;96.30;;;;;;4943183;29;20418;-75
2022/08/24 08:12:30;;;;;;;8.10;4.83;;;21.30;96.30;;;;;;4953858;28;20210;-74
2022/08/24 08:14:56;;;;;;;12.33;5.90;;;21.40;96.30;;;;;;4953895;29;20171;-74
2022/08/24 08:17:22;;;;;;;11.60;5.37;;;21.50;96.30;;;;;;4953796;29;20198;-74
2022/08/24 08:19:48;;;;;;;8.03;5.73;;;21.90;96.30;;;;;;4936410;29;20450;-75
2022/08/24 08:24:59;;;;;;;12.43;5.67;;;22.50;96.30;;;;;;4955449;28;20421;-75
2022/08/24 08:27:24;;;;;;;5.90;5.20;;;22.40;96.30;;;;;;4957577;29;20826;-74
2022/08/24 08:29:50;;;;;;;7.93;5.93;;;22.20;96.30;;;;;;4957313;29;20175;-75
2022/08/24 08:32:18;;;;;;;6.67;6.07;;;23.10;96.30;;;;;;4957353;28;20199;-75
2022/08/24 08:34:44;;;;;;;12.47;6.47;;;23.90;96.30;;;;;;4957207;29;20410;-75
2022/08/24 08:37:11;;;;;;;8.23;5.83;;;24.30;96.30;;;;;;4940077;29;20782;-75
2022/08/24 08:39:37;;;;;;;7.93;6.13;;;24.50;96.30;;;;;;4957007;29;20421;-75
2022/08/24 08:42:13;;;;;;;10.20;6.30;;;24.50;96.30;;;;;;4974671;28;20441;-75
2022/08/24 08:44:51;;;;;;;10.77;6.23;;;24.20;96.30;;;;;;4976551;28;20262;-75
2022/08/24 08:47:48;;;;;;;9.07;5.70;;;24.30;96.30;;;;;;4976514;28;20417;-75
2022/08/24 08:50:54;;;;;;;11.13;6.40;;;24.10;96.30;;;;;;4976283;28;20774;-74
2022/08/24 08:53:25;;;;;;;8.43;5.50;;;23.70;96.30;;;;;;4976299;28;20459;-75
2022/08/24 08:56:18;;;;;;;10.90;6.50;;;24.20;96.30;;;;;;4958871;28;20475;-75
2022/08/24 08:59:00;;;;;;;16.17;7.03;;;24.00;96.30;;;;;;4976203;28;20406;-74
2022/08/24 09:01:42;;;;;;;8.00;4.97;;;23.80;96.30;;;;;;4976129;28;20460;-74
2022/08/24 09:04:44;;;;;;;13.47;5.50;;;23.70;96.30;;;;;;4976204;28;20412;-75
2022/08/24 09:07:18;;;;;;;10.33;6.47;;;23.40;96.30;;;;;;4976190;28;20764;-74
2022/08/24 09:10:08;;;;;;;7.17;5.40;;;23.40;96.30;;;;;;4966156;28;20436;-74
2022/08/24 09:13:05;;;;;;;10.30;5.80;;;23.80;96.30;;;;;;4956785;29;20454;-74
2022/08/24 09:15:57;;;;;;;10.53;5.80;;;23.40;96.30;;;;;;4956708;29;20501;-75
2022/08/24 09:18:46;;;;;;;10.00;5.77;;;23.10;96.30;;;;;;4956345;29;20446;-74
2022/08/24 09:21:24;;;;;;;18.03;6.43;;;23.40;96.30;;;;;;4956463;28;20434;-75
2022/08/24 09:23:55;;;;;;;7.27;5.67;;;23.30;96.30;;;;;;4956553;29;20929;-75
2022/08/24 09:26:46;;;;;;;12.07;6.50;;;23.10;96.30;;;;;;4956448;29;20403;-74
2022/08/24 09:29:22;;;;;;;13.43;6.03;;;23.20;96.30;;;;;;4956277;29;20411;-75
2022/08/24 09:32:13;;;;;;;12.50;5.20;;;23.50;96.30;;;;;;4956264;28;20549;-74
2022/08/24 09:34:52;;;;;;;12.60;5.50;;;23.80;96.30;;;;;;4956301;29;20513;-74
2022/08/24 09:37:40;;;;;;;11.70;5.90;;;23.60;96.30;;;;;;4937665;29;21107;-74
2022/08/24 09:40:32;;;;;;;14.23;5.63;;;23.60;96.30;;;;;;4957971;28;20419;-74
2022/08/24 09:43:09;;;;;;;13.00;5.60;;;23.50;96.30;;;;;;4958450;28;20987;-74
2022/08/24 09:45:53;;;;;;;5.63;5.03;;;24.20;96.30;;;;;;4975265;28;20811;-75
2022/08/24 09:48:35;;;;;;;13.17;5.60;;;24.20;96.30;;;;;;4975217;28;20504;-75
2022/08/24 09:51:24;;;;;;;7.47;5.60;;;24.80;96.30;;;;;;4975172;28;20429;-75
2022/08/24 09:54:24;;;;;;;7.30;4.63;;;24.20;96.30;;;;;;4975268;28;20814;-76
2022/08/24 09:57:17;;;;;;;7.03;5.30;;;23.90;96.30;;;;;;4975313;28;20976;-75
2022/08/24 10:00:12;;;;;;;9.13;4.60;;;23.80;96.30;;;;;;4975064;28;20402;-76
2022/08/24 10:02:58;;;;;;;10.30;4.83;;;23.90;96.30;;;;;;4975323;28;20793;-75
2022/08/24 10:05:58;;;;;;;12.13;5.50;;;23.30;96.30;;;;;;4975072;28;20425;-75
2022/08/24 10:08:34;;;;;;;9.30;5.40;;;23.00;96.30;;;;;;4964097;28;20456;-74
2022/08/24 10:11:17;;;;;;;7.13;5.10;;;23.00;96.30;;;;;;4936449;29;20446;-75
2022/08/24 10:14:02;;;;;;;10.50;5.20;;;23.10;96.30;;;;;;4936532;29;20427;-74
2022/08/24 10:16:59;;;;;;;10.87;5.90;;;23.20;96.30;;;;;;4937364;29;20746;-76
2022/08/24 10:19:44;;;;;;;9.50;6.63;;;22.80;96.30;;;;;;4936568;29;20416;-73
2022/08/24 10:36:10;;;;;;;;;;;;;;;;;;;;;
2022/08/24 11:07:54;;;;;;;7.43;6.17;;;24.10;96.30;;;;;;4952990;29;20795;-73
2022/08/24 11:39:14;;;;;;;15.13;6.40;;;26.40;96.30;;;;;;5137708;23;20971;-75
2022/08/24 11:41:59;;;;;;;11.70;5.90;;;27.00;96.30;;;;;;4987611;28;20993;-75
2022/08/24 11:44:43;;;;;;;16.37;6.83;;;27.00;96.30;;;;;;4989425;28;20431;-76
2022/08/24 11:47:39;;;;;;;7.47;6.20;;;26.00;96.30;;;;;;4936697;29;20425;-76
2022/08/24 11:50:23;;;;;;;8.43;6.20;;;25.40;96.30;;;;;;4965228;28;20472;-75
2022/08/24 11:53:11;;;;;;;8.70;6.30;;;24.60;96.30;;;;;;4973075;28;20456;-75
2022/08/24 11:55:52;;;;;;;8.70;6.20;;;24.70;96.30;;;;;;4973051;28;20405;-76
2022/08/24 11:58:35;;;;;;;6.17;5.37;;;25.40;96.30;;;;;;4972613;28;20409;-76
2022/08/24 12:01:12;;;;;;;11.07;5.60;;;25.40;96.30;;;;;;4955490;28;20433;-74
2022/08/24 12:04:05;;;;;;;8.43;6.13;;;24.90;96.30;;;;;;4973059;28;20401;-74
2022/08/24 12:06:48;;;;;;;9.13;6.17;;;25.00;96.30;;;;;;4972841;28;20453;-74
2022/08/24 12:09:53;;;;;;;7.33;6.57;;;24.50;96.30;;;;;;4978295;28;20444;-74
2022/08/24 12:12:36;;;;;;;9.50;6.30;;;24.70;96.30;;;;;;4992343;28;20858;-74
2022/08/24 12:15:17;;;;;;;9.53;6.30;;;24.70;96.30;;;;;;4992495;28;20893;-74
2022/08/24 12:17:51;;;;;;;13.40;6.90;;;24.80;96.30;;;;;;4992028;28;20409;-76
2022/08/24 12:20:35;;;;;;;7.33;6.37;;;24.40;96.30;;;;;;4992510;28;20476;-74
2022/08/24 12:23:10;;;;;;;9.67;6.87;;;24.70;96.30;;;;;;4992413;28;20444;-75
2022/08/24 12:28:26;;;;;;;10.67;5.60;;;24.30;96.30;;;;;;4972702;28;20436;-74
2022/08/24 12:30:53;;;;;;;11.37;6.50;;;24.70;96.30;;;;;;4972793;28;20792;-74
2022/08/24 12:33:25;;;;;;;11.60;5.70;;;24.90;96.30;;;;;;4968652;28;20465;-75
2022/08/24 12:35:59;;;;;;;8.47;6.33;;;24.80;96.30;;;;;;4969507;28;20506;-76
2022/08/24 12:38:37;;;;;;;14.60;6.73;;;25.10;96.30;;;;;;4963297;28;20441;-75
2022/08/24 12:41:14;;;;;;;10.60;6.70;;;25.00;96.30;;;;;;4969864;28;20433;-74
2022/08/24 12:43:57;;;;;;;10.20;6.70;;;24.80;96.30;;;;;;4965323;28;20406;-75
2022/08/24 12:46:25;;;;;;;14.90;8.07;;;24.80;96.30;;;;;;4953269;29;20914;-74
2022/08/24 12:49:45;;;;;;;10.13;6.53;;;24.60;96.30;;;;;;4962688;28;20406;-74
2022/08/24 12:52:28;;;;;;;15.90;7.87;;;24.60;96.30;;;;;;4885957;29;20469;-74
2022/08/24 12:55:21;;;;;;;16.00;7.60;;;24.40;96.30;;;;;;4955749;28;20462;-75
2022/08/24 12:58:19;;;;;;;11.70;7.50;;;23.90;96.30;;;;;;4955032;28;20413;-74
2022/08/24 13:00:46;;;;;;;10.93;7.87;;;24.00;96.30;;;;;;4962998;28;20926;-74
2022/08/24 13:03:33;;;;;;;11.43;7.43;;;24.50;96.30;;;;;;4974054;28;20527;-74
2022/08/24 13:06:04;;;;;;;9.20;6.80;;;24.60;96.30;;;;;;4991984;28;20397;-74
2022/08/24 13:08:42;;;;;;;12.00;7.23;;;24.10;96.30;;;;;;4974250;28;20419;-74
2022/08/24 13:11:30;;;;;;;19.13;8.43;;;24.10;96.30;;;;;;4974776;28;20442;-76
2022/08/24 13:13:56;;;;;;;12.40;6.87;;;24.30;96.30;;;;;;4964981;28;20421;-76
2022/08/24 13:16:55;;;;;;;10.80;6.60;;;24.30;96.30;;;;;;4949427;28;20406;-77
2022/08/24 13:19:32;;;;;;;12.50;7.70;;;24.00;96.30;;;;;;4970131;28;20210;-76
2022/08/24 13:22:09;;;;;;;11.77;7.10;;;23.90;96.30;;;;;;4958777;28;20434;-77
2022/08/24 13:24:34;;;;;;;8.97;6.13;;;24.10;96.30;;;;;;4956828;29;20845;-77
2022/08/24 13:27:12;;;;;;;12.17;6.33;;;24.30;96.30;;;;;;4956469;29;20513;-77
2022/08/24 13:29:41;;;;;;;7.07;6.20;;;24.40;96.30;;;;;;4955909;29;20230;-77
2022/08/24 13:32:16;;;;;;;9.20;7.13;;;24.50;96.30;;;;;;4956401;28;21087;-76
2022/08/24 13:34:45;;;;;;;10.47;7.80;;;24.50;96.30;;;;;;4955981;28;20918;-76
2022/08/24 13:37:19;;;;;;;10.33;6.67;;;24.30;96.30;;;;;;4956148;29;20423;-76
2022/08/24 13:39:59;;;;;;;10.57;6.60;;;24.60;96.30;;;;;;4955876;29;20801;-76
2022/08/24 13:42:43;;;;;;;13.37;6.17;;;24.40;96.30;;;;;;4969977;28;20932;-76
2022/08/24 13:45:25;;;;;;;9.43;5.90;;;24.50;96.30;;;;;;4994859;28;20405;-76
2022/08/24 13:48:01;;;;;;;9.80;6.70;;;24.90;96.30;;;;;;4994793;28;20397;-77
2022/08/24 13:51:04;;;;;;;14.33;7.60;;;24.80;96.30;;;;;;4994735;28;20401;-77
2022/08/24 13:53:54;;;;;;;13.73;7.07;;;24.80;96.30;;;;;;4994627;28;20509;-77
2022/08/24 13:56:28;;;;;;;10.47;7.40;;;25.20;96.30;;;;;;4965409;28;20410;-77
2022/08/24 13:59:19;;;;;;;13.97;7.30;;;25.40;96.30;;;;;;4955622;29;20501;-76
2022/08/24 14:01:58;;;;;;;10.37;7.10;;;25.80;96.30;;;;;;4955786;28;20930;-77
2022/08/24 14:04:24;;;;;;;7.80;5.90;;;26.00;96.30;;;;;;4974098;28;20917;-77
2022/08/24 14:07:13;;;;;;;9.77;7.53;;;25.90;96.30;;;;;;4975153;28;20412;-77
2022/08/24 14:10:08;;;;;;;11.30;6.47;;;25.70;96.30;;;;;;4983688;28;20188;-77
2022/08/24 14:13:04;;;;;;;10.53;7.40;;;26.30;96.30;;;;;;4962740;28;20864;-77
2022/08/24 14:19:12;;;;;;;10.97;7.40;;;25.60;96.30;;;;;;4955497;29;20420;-77
2022/08/24 14:22:01;;;;;;;18.80;8.60;;;26.30;96.30;;;;;;4955043;28;20513;-77
2022/08/24 14:24:53;;;;;;;12.60;7.63;;;26.30;96.30;;;;;;4955461;29;20414;-77
2022/08/24 14:28:09;;;;;;;12.43;7.77;;;26.40;96.30;;;;;;4955501;29;20812;-77
2022/08/24 14:30:40;;;;;;;11.43;8.13;;;26.40;96.30;;;;;;4955124;29;20445;-76
2022/08/24 14:33:17;;;;;;;10.07;8.97;;;26.40;96.30;;;;;;4955118;29;20811;-76
2022/08/24 14:36:10;;;;;;;16.37;8.73;;;25.70;96.30;;;;;;4941703;28;20756;-74
2022/08/24 14:39:03;;;;;;;9.70;7.63;;;26.00;96.30;;;;;;4965974;28;20999;-73
2022/08/24 14:42:00;;;;;;;19.03;8.70;;;25.60;96.30;;;;;;4987164;28;20987;-74
2022/08/24 14:44:44;;;;;;;16.10;9.23;;;25.80;96.30;;;;;;4994074;28;20448;-74
2022/08/24 14:47:32;;;;;;;24.17;9.07;;;25.60;96.30;;;;;;4988077;28;20488;-74
2022/08/24 14:50:14;;;;;;;8.80;8.00;;;25.40;96.30;;;;;;4965294;28;20502;-75
2022/08/24 14:52:59;;;;;;;10.60;7.87;;;25.30;96.30;;;;;;4962565;28;21307;-76
2022/08/24 14:55:44;;;;;;;19.20;8.90;;;25.20;96.30;;;;;;4964377;28;20405;-76
2022/08/24 14:58:48;;;;;;;11.50;8.63;;;25.00;96.30;;;;;;4937653;29;20809;-74
2022/08/24 15:01:13;;;;;;;20.47;7.37;;;25.30;96.30;;;;;;4953015;29;20581;-74
2022/08/24 15:03:57;;;;;;;15.13;8.07;;;25.60;96.30;;;;;;4954794;29;20489;-74
2022/08/24 15:06:39;;;;;;;10.80;7.83;;;25.60;96.30;;;;;;4954439;29;20305;-74
2022/08/24 15:09:16;;;;;;;13.97;7.93;;;25.70;96.30;;;;;;4965841;28;20427;-74
2022/08/24 15:11:42;;;;;;;8.23;7.23;;;25.70;96.30;;;;;;4975663;28;20511;-74
2022/08/24 15:14:19;;;;;;;12.77;8.70;;;25.80;96.30;;;;;;4975912;28;20429;-74
2022/08/24 15:16:52;;;;;;;13.83;7.97;;;26.00;96.30;;;;;;4990243;28;20422;-75
2022/08/24 15:19:26;;;;;;;12.97;7.70;;;26.20;96.30;;;;;;4973745;28;20410;-74
2022/08/24 15:22:13;;;;;;;11.47;7.07;;;26.30;96.30;;;;;;4974432;28;20953;-75
2022/08/24 15:24:51;;;;;;;9.33;7.53;;;26.50;96.30;;;;;;4959520;28;20441;-74
2022/08/24 15:27:45;;;;;;;9.27;7.67;;;26.70;96.30;;;;;;4954630;29;20464;-74
2022/08/24 15:30:32;;;;;;;15.50;8.10;;;26.80;96.30;;;;;;4953943;29;20411;-76
2022/08/24 15:33:12;;;;;;;29.17;8.73;;;26.90;96.30;;;;;;4959897;28;20452;-76
2022/08/24 15:35:42;;;;;;;15.70;7.70;;;26.60;96.30;;;;;;4977798;28;20448;-76
2022/08/24 15:38:20;;;;;;;20.57;8.90;;;25.60;96.30;;;;;;4973518;28;20969;-75
2022/08/24 15:40:48;;;;;;;12.20;8.07;;;25.60;96.30;;;;;;4963180;28;20532;-74
2022/08/24 15:43:13;;;;;;;15.67;8.00;;;25.40;96.30;;;;;;4993003;28;20421;-74
2022/08/24 15:45:46;;;;;;;9.73;7.87;;;25.00;96.30;;;;;;4992912;28;20420;-75
2022/08/24 15:48:15;;;;;;;13.00;7.17;;;24.80;96.30;;;;;;4977063;28;20248;-75
2022/08/24 15:50:44;;;;;;;10.53;8.27;;;24.70;96.30;;;;;;4973258;28;20430;-75
2022/08/24 15:53:47;;;;;;;11.87;8.80;;;24.50;96.30;;;;;;4973308;28;20496;-75
2022/08/24 15:56:18;;;;;;;15.07;7.73;;;24.30;96.30;;;;;;4894949;29;20971;-76
2022/08/24 15:58:44;;;;;;;13.87;8.47;;;24.40;96.30;;;;;;4959686;28;20430;-76
2022/08/24 16:03:57;;;;;;;11.50;8.67;;;25.00;96.30;;;;;;4973268;28;20468;-75
2022/08/24 16:06:32;;;;;;;12.93;9.07;;;25.10;96.30;;;;;;4973112;28;20453;-76
2022/08/24 16:09:18;;;;;;;11.63;8.07;;;24.90;96.30;;;;;;4976273;28;20420;-76
2022/08/24 16:11:57;;;;;;;11.93;7.93;;;24.70;96.30;;;;;;4961384;28;20561;-76
2022/08/24 16:14:49;;;;;;;20.87;9.23;;;24.90;96.30;;;;;;4953928;29;20415;-76
2022/08/24 16:17:26;;;;;;;17.47;9.70;;;24.70;96.30;;;;;;4955079;29;20576;-75
2022/08/24 16:20:01;;;;;;;12.30;10.03;;;24.70;96.30;;;;;;4937411;29;20533;-76
2022/08/24 16:22:37;;;;;;;13.73;9.80;;;24.30;96.30;;;;;;4953706;29;20441;-76
2022/08/24 16:25:12;;;;;;;15.03;10.00;;;24.10;96.30;;;;;;4953691;29;20422;-75
2022/08/24 16:28:07;;;;;;;20.40;10.47;;;23.90;96.30;;;;;;4953642;29;20417;-76
2022/08/24 16:30:45;;;;;;;13.33;10.10;;;23.70;96.30;;;;;;4953814;29;20446;-76
2022/08/24 16:33:34;;;;;;;12.50;9.60;;;23.80;96.30;;;;;;4953756;29;20463;-76
2022/08/24 16:36:05;;;;;;;14.80;9.27;;;23.70;96.30;;;;;;4953694;29;20410;-75
2022/08/24 16:38:32;;;;;;;10.60;9.33;;;23.80;96.30;;;;;;4953381;29;20485;-76
2022/08/24 16:41:05;;;;;;;10.40;9.30;;;24.00;96.30;;;;;;4971229;28;20804;-76
2022/08/24 16:43:32;;;;;;;13.03;9.90;;;24.20;96.30;;;;;;4992390;28;20415;-76
2022/08/24 16:46:00;;;;;;;15.37;9.97;;;24.30;96.30;;;;;;4994107;28;20905;-76
2022/08/24 16:48:26;;;;;;;14.53;9.67;;;24.30;96.30;;;;;;4995743;28;20409;-76
2022/08/24 16:50:52;;;;;;;13.87;9.27;;;24.30;96.30;;;;;;4996021;28;20952;-75
2022/08/24 16:53:17;;;;;;;16.60;9.10;;;24.40;96.30;;;;;;4996096;28;20539;-76
2022/08/24 16:55:43;;;;;;;11.63;9.07;;;24.00;96.30;;;;;;4995985;28;20184;-76
2022/08/24 16:58:08;;;;;;;11.03;9.43;;;24.00;96.30;;;;;;4996147;28;20189;-76
2022/08/24 17:00:34;;;;;;;11.70;10.13;;;24.10;96.30;;;;;;4980066;28;20198;-76
2022/08/24 17:02:59;;;;;;;15.70;10.90;;;24.10;96.30;;;;;;4967576;28;20323;-76
2022/08/24 17:05:26;;;;;;;16.23;10.60;;;24.00;96.30;;;;;;4949574;29;20214;-76
2022/08/24 17:07:51;;;;;;;15.27;9.60;;;23.90;96.30;;;;;;4961972;28;20214;-77
2022/08/24 17:10:19;;;;;;;14.23;9.57;;;23.70;96.30;;;;;;4969122;28;20421;-75
2022/08/24 17:12:45;;;;;;;12.07;9.07;;;23.60;96.30;;;;;;4996586;28;20193;-76
2022/08/24 17:15:11;;;;;;;11.60;9.40;;;23.50;96.30;;;;;;4974480;28;20418;-77
2022/08/24 17:17:38;;;;;;;9.33;8.33;;;23.30;96.30;;;;;;4970167;28;20213;-77
2022/08/24 17:20:09;;;;;;;13.97;9.00;;;23.20;96.30;;;;;;4960955;29;20414;-77
2022/08/24 17:22:35;;;;;;;16.70;9.60;;;23.20;96.30;;;;;;4962530;28;20454;-75
2022/08/24 17:25:01;;;;;;;11.80;9.60;;;23.20;96.30;;;;;;4964134;28;20431;-76
2022/08/24 17:27:31;;;;;;;12.57;9.67;;;23.20;96.30;;;;;;4965465;28;20257;-76
2022/08/24 17:30:01;;;;;;;16.60;9.13;;;23.00;96.30;;;;;;4961173;28;20175;-76
2022/08/24 17:32:26;;;;;;;16.90;9.57;;;22.80;96.30;;;;;;4961152;28;20462;-74
2022/08/24 17:34:52;;;;;;;11.73;8.40;;;22.70;96.30;;;;;;4949872;28;20531;-75
2022/08/24 17:37:17;;;;;;;11.50;8.87;;;22.60;96.30;;;;;;4947725;28;20581;-75
2022/08/24 17:39:43;;;;;;;12.67;9.63;;;22.50;96.30;;;;;;4964647;28;20183;-75
2022/08/24 17:42:09;;;;;;;10.70;8.93;;;22.30;96.30;;;;;;4971858;28;20225;-75
2022/08/24 17:44:35;;;;;;;19.23;9.40;;;22.30;96.30;;;;;;4967380;28;20183;-76
2022/08/24 17:47:02;;;;;;;15.67;8.30;;;22.20;96.30;;;;;;4959728;28;20643;-75
2022/08/24 17:49:30;;;;;;;11.47;9.10;;;22.10;96.30;;;;;;4964538;28;20410;-75
2022/08/24 17:51:56;;;;;;;9.77;8.77;;;22.10;96.30;;;;;;4966127;28;20458;-75
2022/08/24 17:54:23;;;;;;;10.20;8.80;;;22.00;96.30;;;;;;4963777;28;20406;-75
2022/08/24 17:56:50;;;;;;;18.53;9.27;;;21.80;96.30;;;;;;4968633;28;20982;-75
2022/08/24 17:59:23;;;;;;;12.60;9.60;;;21.60;96.30;;;;;;4965339;28;20418;-74
2022/08/24 18:01:58;;;;;;;11.10;8.60;;;21.40;96.30;;;;;;4967980;28;20434;-73
2022/08/24 18:04:27;;;;;;;18.97;8.97;;;21.20;96.30;;;;;;4963421;28;20416;-73
2022/08/24 18:06:54;;;;;;;12.83;8.63;;;21.00;96.30;;;;;;4965563;28;20468;-74
2022/08/24 18:09:34;;;;;;;12.10;8.90;;;20.90;96.30;;;;;;4967742;28;20414;-74
2022/08/24 18:12:00;;;;;;;14.20;9.00;;;20.70;96.30;;;;;;4963791;28;20458;-74
2022/08/24 18:14:27;;;;;;;10.77;9.37;;;20.50;96.30;;;;;;4964120;28;20506;-75
2022/08/24 18:16:54;;;;;;;10.93;9.83;;;20.30;96.30;;;;;;4957351;28;20493;-74
2022/08/24 18:19:20;;;;;;;14.00;10.10;;;20.10;96.30;;;;;;4955280;29;20414;-74
2022/08/24 18:21:46;;;;;;;12.73;9.40;;;20.00;96.30;;;;;;4955538;29;20426;-75
2022/08/24 18:24:11;;;;;;;13.27;9.67;;;;;;;;;;4967817;28;20425;-74
2022/08/24 18:26:38;;;;;;;10.63;9.47;;;19.70;96.30;;;;;;4974517;28;20186;-75
2022/08/24 18:29:11;;;;;;;17.03;9.83;;;19.60;96.30;;;;;;4963208;28;20222;-74
2022/08/24 18:31:37;;;;;;;11.83;8.70;;;19.40;96.30;;;;;;4971995;28;20890;-74
2022/08/24 18:34:03;;;;;;;11.70;9.73;;;19.30;96.30;;;;;;4969409;28;20510;-74
2022/08/24 18:36:29;;;;;;;13.40;9.77;;;19.20;96.30;;;;;;4971018;28;20417;-74
2022/08/24 18:38:54;;;;;;;13.70;9.77;;;19.00;96.30;;;;;;4973935;28;20440;-74
2022/08/24 18:41:30;;;;;;;14.23;9.30;;;18.90;96.30;;;;;;4989727;28;20221;-75
2022/08/24 18:43:56;;;;;;;14.43;10.00;;;;;;;;;;4993889;28;20436;-75